sensor_id;sensor_type;location;lat;lon;timestamp;P1;durP1;ratioP1;P2;durP2;ratioP2
78197;SDS011;67472;51.554;7.812;2023-06-10T00:01:38;14.70;;;10.73;;
78197;SDS011;67472;51.554;7.812;2023-06-10T00:04:26;14.40;;;10.90;;
78197;SDS011;67472;51.554;7.812;2023-06-10T00:07:12;12.73;;;10.07;;
78197;SDS011;67472;51.554;7.812;2023-06-10T00:09:59;12.65;;;10.55;;
78197;SDS011;67472;51.554;7.812;2023-06-10T00:12:49;14.88;;;10.70;;
78197;SDS011;67472;51.554;7.812;2023-06-10T00:15:36;14.73;;;10.98;;
78197;SDS011;67472;51.554;7.812;2023-06-10T00:18:22;11.68;;;10.48;;
78197;SDS011;67472;51.554;7.812;2023-06-10T00:21:10;12.20;;;11.00;;
78197;SDS011;67472;51.554;7.812;2023-06-10T00:23:57;11.80;;;10.55;;
78197;SDS011;67472;51.554;7.812;2023-06-10T00:26:47;11.75;;;10.52;;
78197;SDS011;67472;51.554;7.812;2023-06-10T00:29:34;13.50;;;10.90;;
78197;SDS011;67472;51.554;7.812;2023-06-10T00:32:21;13.68;;;11.95;;
78197;SDS011;67472;51.554;7.812;2023-06-10T00:35:07;10.50;;;9.48;;
78197;SDS011;67472;51.554;7.812;2023-06-10T00:37:55;12.38;;;11.15;;
78197;SDS011;67472;51.554;7.812;2023-06-10T00:40:41;12.93;;;10.82;;
78197;SDS011;67472;51.554;7.812;2023-06-10T00:43:30;16.83;;;11.85;;
78197;SDS011;67472;51.554;7.812;2023-06-10T00:46:16;15.75;;;11.60;;
78197;SDS011;67472;51.554;7.812;2023-06-10T00:49:03;12.65;;;10.57;;
78197;SDS011;67472;51.554;7.812;2023-06-10T00:51:50;12.50;;;11.10;;
78197;SDS011;67472;51.554;7.812;2023-06-10T00:54:39;12.73;;;11.10;;
78197;SDS011;67472;51.554;7.812;2023-06-10T00:57:27;12.85;;;11.55;;
78197;SDS011;67472;51.554;7.812;2023-06-10T01:00:15;12.68;;;11.43;;
78197;SDS011;67472;51.554;7.812;2023-06-10T01:03:02;14.00;;;12.32;;
78197;SDS011;67472;51.554;7.812;2023-06-10T01:05:53;12.57;;;11.27;;
78197;SDS011;67472;51.554;7.812;2023-06-10T01:08:49;16.90;;;12.00;;
78197;SDS011;67472;51.554;7.812;2023-06-10T01:11:45;15.07;;;13.48;;
78197;SDS011;67472;51.554;7.812;2023-06-10T01:14:35;12.48;;;11.18;;
78197;SDS011;67472;51.554;7.812;2023-06-10T01:17:23;16.20;;;13.68;;
78197;SDS011;67472;51.554;7.812;2023-06-10T01:20:11;19.25;;;12.93;;
78197;SDS011;67472;51.554;7.812;2023-06-10T01:22:59;13.75;;;12.38;;
78197;SDS011;67472;51.554;7.812;2023-06-10T01:25:47;14.95;;;13.40;;
78197;SDS011;67472;51.554;7.812;2023-06-10T01:28:40;18.73;;;13.38;;
78197;SDS011;67472;51.554;7.812;2023-06-10T01:31:34;15.93;;;13.07;;
78197;SDS011;67472;51.554;7.812;2023-06-10T01:34:27;15.18;;;12.68;;
78197;SDS011;67472;51.554;7.812;2023-06-10T01:37:16;15.10;;;13.45;;
78197;SDS011;67472;51.554;7.812;2023-06-10T01:40:07;14.95;;;13.35;;
78197;SDS011;67472;51.554;7.812;2023-06-10T01:42:54;17.50;;;13.60;;
78197;SDS011;67472;51.554;7.812;2023-06-10T01:45:40;16.45;;;14.77;;
78197;SDS011;67472;51.554;7.812;2023-06-10T01:48:27;18.05;;;14.00;;
78197;SDS011;67472;51.554;7.812;2023-06-10T01:51:13;14.60;;;13.15;;
78197;SDS011;67472;51.554;7.812;2023-06-10T01:53:59;13.73;;;12.32;;
78197;SDS011;67472;51.554;7.812;2023-06-10T01:56:47;16.17;;;14.35;;
78197;SDS011;67472;51.554;7.812;2023-06-10T01:59:33;18.92;;;14.27;;
78197;SDS011;67472;51.554;7.812;2023-06-10T02:02:21;16.05;;;14.35;;
78197;SDS011;67472;51.554;7.812;2023-06-10T02:05:09;15.90;;;13.63;;
78197;SDS011;67472;51.554;7.812;2023-06-10T02:07:55;16.75;;;13.85;;
78197;SDS011;67472;51.554;7.812;2023-06-10T02:10:42;17.33;;;14.63;;
78197;SDS011;67472;51.554;7.812;2023-06-10T02:13:30;15.70;;;14.10;;
78197;SDS011;67472;51.554;7.812;2023-06-10T02:16:16;16.95;;;14.65;;
78197;SDS011;67472;51.554;7.812;2023-06-10T02:19:03;16.30;;;14.65;;
78197;SDS011;67472;51.554;7.812;2023-06-10T02:21:51;17.25;;;14.35;;
78197;SDS011;67472;51.554;7.812;2023-06-10T02:24:37;18.35;;;15.02;;
78197;SDS011;67472;51.554;7.812;2023-06-10T02:27:24;17.25;;;14.63;;
78197;SDS011;67472;51.554;7.812;2023-06-10T02:30:12;19.23;;;14.68;;
78197;SDS011;67472;51.554;7.812;2023-06-10T02:33:00;16.50;;;14.80;;
78197;SDS011;67472;51.554;7.812;2023-06-10T02:35:46;18.52;;;14.63;;
78197;SDS011;67472;51.554;7.812;2023-06-10T02:38:34;17.45;;;15.23;;
78197;SDS011;67472;51.554;7.812;2023-06-10T02:41:20;18.90;;;15.13;;
78197;SDS011;67472;51.554;7.812;2023-06-10T02:44:10;20.23;;;14.80;;
78197;SDS011;67472;51.554;7.812;2023-06-10T02:46:58;17.20;;;13.90;;
78197;SDS011;67472;51.554;7.812;2023-06-10T02:49:45;17.65;;;14.80;;
78197;SDS011;67472;51.554;7.812;2023-06-10T02:52:32;16.77;;;14.90;;
78197;SDS011;67472;51.554;7.812;2023-06-10T02:55:19;17.40;;;14.68;;
78197;SDS011;67472;51.554;7.812;2023-06-10T02:58:11;17.48;;;15.68;;
78197;SDS011;67472;51.554;7.812;2023-06-10T03:00:58;18.02;;;16.00;;
78197;SDS011;67472;51.554;7.812;2023-06-10T03:03:50;19.33;;;16.20;;
78197;SDS011;67472;51.554;7.812;2023-06-10T03:06:37;18.30;;;15.48;;
78197;SDS011;67472;51.554;7.812;2023-06-10T03:09:37;24.10;;;17.30;;
78197;SDS011;67472;51.554;7.812;2023-06-10T03:12:25;19.73;;;16.30;;
78197;SDS011;67472;51.554;7.812;2023-06-10T03:15:11;19.55;;;16.35;;
78197;SDS011;67472;51.554;7.812;2023-06-10T03:17:59;18.67;;;15.90;;
78197;SDS011;67472;51.554;7.812;2023-06-10T03:20:49;20.50;;;16.42;;
78197;SDS011;67472;51.554;7.812;2023-06-10T03:23:37;23.08;;;16.15;;
78197;SDS011;67472;51.554;7.812;2023-06-10T03:26:23;17.83;;;15.82;;
78197;SDS011;67472;51.554;7.812;2023-06-10T03:29:11;22.80;;;16.88;;
78197;SDS011;67472;51.554;7.812;2023-06-10T03:31:57;20.10;;;17.70;;
78197;SDS011;67472;51.554;7.812;2023-06-10T03:34:43;22.30;;;17.75;;
78197;SDS011;67472;51.554;7.812;2023-06-10T03:37:33;24.50;;;18.02;;
78197;SDS011;67472;51.554;7.812;2023-06-10T03:40:20;23.95;;;17.63;;
78197;SDS011;67472;51.554;7.812;2023-06-10T03:43:06;21.05;;;18.42;;
78197;SDS011;67472;51.554;7.812;2023-06-10T03:45:53;22.85;;;16.60;;
78197;SDS011;67472;51.554;7.812;2023-06-10T03:48:40;21.27;;;17.13;;
78197;SDS011;67472;51.554;7.812;2023-06-10T03:51:27;22.83;;;17.67;;
78197;SDS011;67472;51.554;7.812;2023-06-10T03:54:15;18.23;;;16.33;;
78197;SDS011;67472;51.554;7.812;2023-06-10T03:57:01;22.15;;;16.83;;
78197;SDS011;67472;51.554;7.812;2023-06-10T03:59:49;20.63;;;15.63;;
78197;SDS011;67472;51.554;7.812;2023-06-10T04:02:35;17.08;;;15.07;;
78197;SDS011;67472;51.554;7.812;2023-06-10T04:05:21;20.75;;;15.52;;
78197;SDS011;67472;51.554;7.812;2023-06-10T04:08:10;15.95;;;14.23;;
78197;SDS011;67472;51.554;7.812;2023-06-10T04:10:58;16.10;;;14.35;;
78197;SDS011;67472;51.554;7.812;2023-06-10T04:13:45;18.08;;;13.80;;
78197;SDS011;67472;51.554;7.812;2023-06-10T04:16:32;19.45;;;13.68;;
78197;SDS011;67472;51.554;7.812;2023-06-10T04:19:19;17.90;;;14.13;;
78197;SDS011;67472;51.554;7.812;2023-06-10T04:22:05;19.60;;;14.45;;
78197;SDS011;67472;51.554;7.812;2023-06-10T04:24:52;14.68;;;13.00;;
78197;SDS011;67472;51.554;7.812;2023-06-10T04:27:40;15.13;;;12.65;;
78197;SDS011;67472;51.554;7.812;2023-06-10T04:30:26;17.10;;;13.77;;
78197;SDS011;67472;51.554;7.812;2023-06-10T04:33:12;16.13;;;14.15;;
78197;SDS011;67472;51.554;7.812;2023-06-10T04:35:59;16.25;;;14.27;;
78197;SDS011;67472;51.554;7.812;2023-06-10T04:38:49;18.75;;;15.38;;
78197;SDS011;67472;51.554;7.812;2023-06-10T04:41:37;16.10;;;14.30;;
78197;SDS011;67472;51.554;7.812;2023-06-10T04:44:24;17.05;;;15.20;;
78197;SDS011;67472;51.554;7.812;2023-06-10T04:47:11;20.08;;;16.55;;
78197;SDS011;67472;51.554;7.812;2023-06-10T04:49:57;18.80;;;15.45;;
78197;SDS011;67472;51.554;7.812;2023-06-10T04:52:43;22.88;;;16.50;;
78197;SDS011;67472;51.554;7.812;2023-06-10T04:55:31;21.35;;;15.80;;
78197;SDS011;67472;51.554;7.812;2023-06-10T04:58:18;21.10;;;15.70;;
78197;SDS011;67472;51.554;7.812;2023-06-10T05:01:06;22.63;;;15.90;;
78197;SDS011;67472;51.554;7.812;2023-06-10T05:03:52;19.20;;;16.17;;
78197;SDS011;67472;51.554;7.812;2023-06-10T05:06:38;15.95;;;14.10;;
78197;SDS011;67472;51.554;7.812;2023-06-10T05:09:24;17.95;;;15.13;;
78197;SDS011;67472;51.554;7.812;2023-06-10T05:12:12;17.70;;;14.40;;
78197;SDS011;67472;51.554;7.812;2023-06-10T05:14:58;20.02;;;15.32;;
78197;SDS011;67472;51.554;7.812;2023-06-10T05:30:16;15.45;;;12.00;;
78197;SDS011;67472;51.554;7.812;2023-06-10T05:33:04;17.80;;;12.77;;
78197;SDS011;67472;51.554;7.812;2023-06-10T05:35:54;16.58;;;12.25;;
78197;SDS011;67472;51.554;7.812;2023-06-10T05:38:44;13.75;;;11.30;;
78197;SDS011;67472;51.554;7.812;2023-06-10T05:41:30;14.20;;;12.55;;
78197;SDS011;67472;51.554;7.812;2023-06-10T05:44:16;14.65;;;12.05;;
78197;SDS011;67472;51.554;7.812;2023-06-10T05:47:04;13.55;;;11.05;;
78197;SDS011;67472;51.554;7.812;2023-06-10T05:49:51;12.63;;;10.57;;
78197;SDS011;67472;51.554;7.812;2023-06-10T05:52:37;12.65;;;10.55;;
78197;SDS011;67472;51.554;7.812;2023-06-10T05:55:25;12.18;;;9.75;;
78197;SDS011;67472;51.554;7.812;2023-06-10T05:58:11;13.18;;;10.60;;
78197;SDS011;67472;51.554;7.812;2023-06-10T06:00:58;13.85;;;10.43;;
78197;SDS011;67472;51.554;7.812;2023-06-10T06:03:46;15.20;;;10.02;;
78197;SDS011;67472;51.554;7.812;2023-06-10T06:06:32;10.70;;;9.07;;
78197;SDS011;67472;51.554;7.812;2023-06-10T06:09:18;10.63;;;8.57;;
78197;SDS011;67472;51.554;7.812;2023-06-10T06:12:05;10.18;;;8.32;;
78197;SDS011;67472;51.554;7.812;2023-06-10T06:14:52;9.98;;;7.95;;
78197;SDS011;67472;51.554;7.812;2023-06-10T06:17:38;10.13;;;7.65;;
78197;SDS011;67472;51.554;7.812;2023-06-10T06:20:26;11.75;;;8.70;;
78197;SDS011;67472;51.554;7.812;2023-06-10T06:23:12;11.00;;;9.10;;
78197;SDS011;67472;51.554;7.812;2023-06-10T06:25:58;9.57;;;8.45;;
78197;SDS011;67472;51.554;7.812;2023-06-10T06:28:45;9.48;;;7.75;;
78197;SDS011;67472;51.554;7.812;2023-06-10T06:31:31;15.15;;;7.63;;
78197;SDS011;67472;51.554;7.812;2023-06-10T06:34:18;9.93;;;7.93;;
78197;SDS011;67472;51.554;7.812;2023-06-10T06:37:05;9.43;;;7.82;;
78197;SDS011;67472;51.554;7.812;2023-06-10T06:39:54;9.75;;;7.30;;
78197;SDS011;67472;51.554;7.812;2023-06-10T06:42:40;9.30;;;6.85;;
78197;SDS011;67472;51.554;7.812;2023-06-10T06:45:35;8.88;;;6.57;;
78197;SDS011;67472;51.554;7.812;2023-06-10T06:48:22;12.88;;;7.38;;
78197;SDS011;67472;51.554;7.812;2023-06-10T06:51:08;8.48;;;6.72;;
78197;SDS011;67472;51.554;7.812;2023-06-10T06:53:56;13.30;;;6.28;;
78197;SDS011;67472;51.554;7.812;2023-06-10T06:56:43;9.10;;;6.82;;
78197;SDS011;67472;51.554;7.812;2023-06-10T06:59:30;9.27;;;6.55;;
78197;SDS011;67472;51.554;7.812;2023-06-10T07:02:16;7.57;;;6.30;;
78197;SDS011;67472;51.554;7.812;2023-06-10T07:05:04;9.32;;;5.80;;
78197;SDS011;67472;51.554;7.812;2023-06-10T07:07:50;10.82;;;5.50;;
78197;SDS011;67472;51.554;7.812;2023-06-10T07:10:41;12.65;;;5.97;;
78197;SDS011;67472;51.554;7.812;2023-06-10T07:13:27;7.72;;;6.07;;
78197;SDS011;67472;51.554;7.812;2023-06-10T07:16:13;7.82;;;5.47;;
78197;SDS011;67472;51.554;7.812;2023-06-10T07:19:00;8.07;;;5.70;;
78197;SDS011;67472;51.554;7.812;2023-06-10T07:21:46;9.55;;;5.28;;
78197;SDS011;67472;51.554;7.812;2023-06-10T07:24:32;7.07;;;5.00;;
78197;SDS011;67472;51.554;7.812;2023-06-10T07:27:20;9.18;;;4.80;;
78197;SDS011;67472;51.554;7.812;2023-06-10T07:30:07;5.53;;;4.95;;
78197;SDS011;67472;51.554;7.812;2023-06-10T07:32:54;5.35;;;4.20;;
78197;SDS011;67472;51.554;7.812;2023-06-10T07:35:41;10.10;;;5.20;;
78197;SDS011;67472;51.554;7.812;2023-06-10T07:38:28;8.15;;;4.55;;
78197;SDS011;67472;51.554;7.812;2023-06-10T07:41:14;8.90;;;4.90;;
78197;SDS011;67472;51.554;7.812;2023-06-10T07:44:04;6.22;;;4.82;;
78197;SDS011;67472;51.554;7.812;2023-06-10T07:46:50;49.28;;;16.00;;
78197;SDS011;67472;51.554;7.812;2023-06-10T07:49:37;8.20;;;4.85;;
78197;SDS011;67472;51.554;7.812;2023-06-10T07:52:24;9.75;;;5.10;;
78197;SDS011;67472;51.554;7.812;2023-06-10T07:55:10;8.43;;;4.50;;
78197;SDS011;67472;51.554;7.812;2023-06-10T07:57:57;8.13;;;4.75;;
78197;SDS011;67472;51.554;7.812;2023-06-10T08:00:44;7.70;;;4.85;;
78197;SDS011;67472;51.554;7.812;2023-06-10T08:03:32;10.18;;;5.25;;
78197;SDS011;67472;51.554;7.812;2023-06-10T08:06:19;6.93;;;4.57;;
78197;SDS011;67472;51.554;7.812;2023-06-10T08:09:05;6.07;;;4.45;;
78197;SDS011;67472;51.554;7.812;2023-06-10T08:11:51;6.57;;;4.40;;
78197;SDS011;67472;51.554;7.812;2023-06-10T08:14:38;6.15;;;4.38;;
78197;SDS011;67472;51.554;7.812;2023-06-10T08:17:25;11.23;;;5.70;;
78197;SDS011;67472;51.554;7.812;2023-06-10T08:20:12;10.10;;;4.78;;
78197;SDS011;67472;51.554;7.812;2023-06-10T08:22:59;8.25;;;4.40;;
78197;SDS011;67472;51.554;7.812;2023-06-10T08:25:45;7.68;;;4.30;;
78197;SDS011;67472;51.554;7.812;2023-06-10T08:28:32;6.03;;;4.57;;
78197;SDS011;67472;51.554;7.812;2023-06-10T08:31:18;6.95;;;4.18;;
78197;SDS011;67472;51.554;7.812;2023-06-10T08:34:05;6.22;;;4.28;;
78197;SDS011;67472;51.554;7.812;2023-06-10T08:36:51;5.55;;;4.35;;
78197;SDS011;67472;51.554;7.812;2023-06-10T08:39:40;4.55;;;4.10;;
78197;SDS011;67472;51.554;7.812;2023-06-10T08:42:28;6.78;;;4.13;;
78197;SDS011;67472;51.554;7.812;2023-06-10T08:45:20;7.22;;;4.78;;
78197;SDS011;67472;51.554;7.812;2023-06-10T08:48:09;8.88;;;4.88;;
78197;SDS011;67472;51.554;7.812;2023-06-10T08:51:00;12.40;;;3.97;;
78197;SDS011;67472;51.554;7.812;2023-06-10T08:53:50;6.82;;;4.35;;
78197;SDS011;67472;51.554;7.812;2023-06-10T08:56:39;10.45;;;4.35;;
78197;SDS011;67472;51.554;7.812;2023-06-10T08:59:27;7.95;;;4.20;;
78197;SDS011;67472;51.554;7.812;2023-06-10T09:02:14;7.05;;;4.35;;
78197;SDS011;67472;51.554;7.812;2023-06-10T09:05:04;5.97;;;4.07;;
78197;SDS011;67472;51.554;7.812;2023-06-10T09:07:54;9.38;;;4.60;;
78197;SDS011;67472;51.554;7.812;2023-06-10T09:10:43;7.45;;;3.85;;
78197;SDS011;67472;51.554;7.812;2023-06-10T09:13:30;9.18;;;4.57;;
78197;SDS011;67472;51.554;7.812;2023-06-10T09:16:16;8.25;;;4.03;;
78197;SDS011;67472;51.554;7.812;2023-06-10T09:19:02;8.88;;;4.45;;
78197;SDS011;67472;51.554;7.812;2023-06-10T09:21:52;4.38;;;3.97;;
78197;SDS011;67472;51.554;7.812;2023-06-10T09:24:40;7.07;;;4.97;;
78197;SDS011;67472;51.554;7.812;2023-06-10T09:27:29;10.43;;;4.65;;
78197;SDS011;67472;51.554;7.812;2023-06-10T09:30:23;6.70;;;4.60;;
78197;SDS011;67472;51.554;7.812;2023-06-10T09:33:12;8.30;;;4.60;;
78197;SDS011;67472;51.554;7.812;2023-06-10T09:36:01;7.88;;;5.07;;
78197;SDS011;67472;51.554;7.812;2023-06-10T09:38:49;7.13;;;4.13;;
78197;SDS011;67472;51.554;7.812;2023-06-10T09:41:39;6.88;;;4.88;;
78197;SDS011;67472;51.554;7.812;2023-06-10T09:44:26;5.50;;;4.75;;
78197;SDS011;67472;51.554;7.812;2023-06-10T09:47:13;10.43;;;4.78;;
78197;SDS011;67472;51.554;7.812;2023-06-10T09:50:05;8.80;;;5.22;;
78197;SDS011;67472;51.554;7.812;2023-06-10T09:52:52;12.20;;;5.25;;
78197;SDS011;67472;51.554;7.812;2023-06-10T09:55:39;5.97;;;5.07;;
78197;SDS011;67472;51.554;7.812;2023-06-10T09:58:34;8.93;;;5.20;;
78197;SDS011;67472;51.554;7.812;2023-06-10T10:01:22;7.40;;;4.22;;
78197;SDS011;67472;51.554;7.812;2023-06-10T10:04:08;7.80;;;5.15;;
78197;SDS011;67472;51.554;7.812;2023-06-10T10:06:55;5.85;;;4.75;;
78197;SDS011;67472;51.554;7.812;2023-06-10T10:09:41;5.95;;;4.57;;
78197;SDS011;67472;51.554;7.812;2023-06-10T10:12:28;6.47;;;4.43;;
78197;SDS011;67472;51.554;7.812;2023-06-10T10:15:17;4.15;;;3.75;;
78197;SDS011;67472;51.554;7.812;2023-06-10T10:18:04;7.65;;;4.90;;
78197;SDS011;67472;51.554;7.812;2023-06-10T10:20:54;9.15;;;4.88;;
78197;SDS011;67472;51.554;7.812;2023-06-10T10:23:43;8.43;;;5.00;;
78197;SDS011;67472;51.554;7.812;2023-06-10T10:26:39;5.10;;;4.53;;
78197;SDS011;67472;51.554;7.812;2023-06-10T10:29:28;14.60;;;4.35;;
78197;SDS011;67472;51.554;7.812;2023-06-10T10:32:18;6.50;;;5.55;;
78197;SDS011;67472;51.554;7.812;2023-06-10T10:35:12;7.13;;;4.40;;
78197;SDS011;67472;51.554;7.812;2023-06-10T10:38:02;5.32;;;4.60;;
78197;SDS011;67472;51.554;7.812;2023-06-10T10:40:48;5.40;;;4.70;;
78197;SDS011;67472;51.554;7.812;2023-06-10T10:43:35;8.23;;;4.95;;
78197;SDS011;67472;51.554;7.812;2023-06-10T10:46:22;7.72;;;4.30;;
78197;SDS011;67472;51.554;7.812;2023-06-10T10:49:10;5.43;;;4.50;;
78197;SDS011;67472;51.554;7.812;2023-06-10T10:51:57;7.53;;;4.82;;
78197;SDS011;67472;51.554;7.812;2023-06-10T10:54:45;5.88;;;5.28;;
78197;SDS011;67472;51.554;7.812;2023-06-10T10:57:32;5.80;;;4.70;;
78197;SDS011;67472;51.554;7.812;2023-06-10T11:00:28;5.65;;;4.35;;
78197;SDS011;67472;51.554;7.812;2023-06-10T11:03:16;8.20;;;5.03;;
78197;SDS011;67472;51.554;7.812;2023-06-10T11:06:04;6.35;;;4.55;;
78197;SDS011;67472;51.554;7.812;2023-06-10T11:08:58;5.20;;;4.45;;
78197;SDS011;67472;51.554;7.812;2023-06-10T11:11:49;5.53;;;4.30;;
78197;SDS011;67472;51.554;7.812;2023-06-10T11:14:35;6.85;;;4.75;;
78197;SDS011;67472;51.554;7.812;2023-06-10T11:17:24;8.80;;;5.25;;
78197;SDS011;67472;51.554;7.812;2023-06-10T11:20:10;8.63;;;4.97;;
78197;SDS011;67472;51.554;7.812;2023-06-10T11:23:02;9.75;;;4.75;;
78197;SDS011;67472;51.554;7.812;2023-06-10T11:25:49;5.60;;;4.70;;
78197;SDS011;67472;51.554;7.812;2023-06-10T11:28:35;7.38;;;4.40;;
78197;SDS011;67472;51.554;7.812;2023-06-10T11:31:22;6.85;;;4.78;;
78197;SDS011;67472;51.554;7.812;2023-06-10T11:34:10;8.18;;;4.70;;
78197;SDS011;67472;51.554;7.812;2023-06-10T11:36:57;8.82;;;5.15;;
78197;SDS011;67472;51.554;7.812;2023-06-10T11:39:46;9.48;;;5.43;;
78197;SDS011;67472;51.554;7.812;2023-06-10T11:42:33;6.57;;;5.40;;
78197;SDS011;67472;51.554;7.812;2023-06-10T11:45:23;6.30;;;5.05;;
78197;SDS011;67472;51.554;7.812;2023-06-10T11:48:10;5.97;;;4.43;;
78197;SDS011;67472;51.554;7.812;2023-06-10T11:50:56;8.55;;;4.93;;
78197;SDS011;67472;51.554;7.812;2023-06-10T11:53:43;7.35;;;4.80;;
78197;SDS011;67472;51.554;7.812;2023-06-10T11:56:32;6.97;;;4.68;;
78197;SDS011;67472;51.554;7.812;2023-06-10T11:59:18;8.05;;;4.35;;
78197;SDS011;67472;51.554;7.812;2023-06-10T12:02:14;12.32;;;5.18;;
78197;SDS011;67472;51.554;7.812;2023-06-10T12:05:09;7.78;;;5.53;;
78197;SDS011;67472;51.554;7.812;2023-06-10T12:08:10;8.25;;;5.35;;
78197;SDS011;67472;51.554;7.812;2023-06-10T12:10:57;5.82;;;4.82;;
78197;SDS011;67472;51.554;7.812;2023-06-10T12:13:46;5.43;;;4.90;;
78197;SDS011;67472;51.554;7.812;2023-06-10T12:16:34;8.35;;;5.13;;
78197;SDS011;67472;51.554;7.812;2023-06-10T12:19:20;6.00;;;5.38;;
78197;SDS011;67472;51.554;7.812;2023-06-10T12:22:07;7.10;;;4.40;;
78197;SDS011;67472;51.554;7.812;2023-06-10T12:24:57;7.00;;;5.03;;
78197;SDS011;67472;51.554;7.812;2023-06-10T12:27:50;7.45;;;5.00;;
78197;SDS011;67472;51.554;7.812;2023-06-10T12:30:39;5.57;;;5.07;;
78197;SDS011;67472;51.554;7.812;2023-06-10T12:33:25;6.05;;;4.75;;
78197;SDS011;67472;51.554;7.812;2023-06-10T12:36:15;5.32;;;4.82;;
78197;SDS011;67472;51.554;7.812;2023-06-10T12:39:03;5.15;;;4.63;;
78197;SDS011;67472;51.554;7.812;2023-06-10T12:41:50;5.82;;;4.68;;
78197;SDS011;67472;51.554;7.812;2023-06-10T12:44:39;8.30;;;5.30;;
78197;SDS011;67472;51.554;7.812;2023-06-10T12:47:31;6.97;;;5.07;;
78197;SDS011;67472;51.554;7.812;2023-06-10T12:50:19;6.88;;;4.97;;
78197;SDS011;67472;51.554;7.812;2023-06-10T12:53:06;8.18;;;5.32;;
78197;SDS011;67472;51.554;7.812;2023-06-10T12:55:53;9.20;;;5.47;;
78197;SDS011;67472;51.554;7.812;2023-06-10T12:58:39;5.60;;;4.50;;
78197;SDS011;67472;51.554;7.812;2023-06-10T13:01:27;4.93;;;4.40;;
78197;SDS011;67472;51.554;7.812;2023-06-10T13:04:16;5.97;;;5.22;;
78197;SDS011;67472;51.554;7.812;2023-06-10T13:07:03;6.00;;;5.40;;
78197;SDS011;67472;51.554;7.812;2023-06-10T13:09:49;8.05;;;4.93;;
78197;SDS011;67472;51.554;7.812;2023-06-10T13:12:35;6.35;;;5.50;;
78197;SDS011;67472;51.554;7.812;2023-06-10T13:15:22;5.75;;;5.10;;
78197;SDS011;67472;51.554;7.812;2023-06-10T13:18:11;6.00;;;5.40;;
78197;SDS011;67472;51.554;7.812;2023-06-10T13:20:59;7.68;;;5.85;;
78197;SDS011;67472;51.554;7.812;2023-06-10T13:23:45;5.78;;;5.18;;
78197;SDS011;67472;51.554;7.812;2023-06-10T13:26:31;5.60;;;5.00;;
78197;SDS011;67472;51.554;7.812;2023-06-10T13:29:18;5.95;;;5.45;;
78197;SDS011;67472;51.554;7.812;2023-06-10T13:32:04;7.90;;;5.65;;
78197;SDS011;67472;51.554;7.812;2023-06-10T13:34:51;6.15;;;5.20;;
78197;SDS011;67472;51.554;7.812;2023-06-10T13:37:40;5.72;;;5.15;;
78197;SDS011;67472;51.554;7.812;2023-06-10T13:40:26;5.80;;;5.00;;
78197;SDS011;67472;51.554;7.812;2023-06-10T13:43:12;6.65;;;5.28;;
78197;SDS011;67472;51.554;7.812;2023-06-10T13:45:58;5.05;;;4.55;;
78197;SDS011;67472;51.554;7.812;2023-06-10T13:48:44;5.60;;;4.57;;
78197;SDS011;67472;51.554;7.812;2023-06-10T13:51:30;6.05;;;4.75;;
78197;SDS011;67472;51.554;7.812;2023-06-10T13:54:18;5.93;;;4.45;;
78197;SDS011;67472;51.554;7.812;2023-06-10T13:57:05;10.85;;;4.97;;
78197;SDS011;67472;51.554;7.812;2023-06-10T13:59:54;6.47;;;5.18;;
78197;SDS011;67472;51.554;7.812;2023-06-10T14:02:41;5.50;;;5.00;;
78197;SDS011;67472;51.554;7.812;2023-06-10T14:05:28;5.70;;;5.10;;
78197;SDS011;67472;51.554;7.812;2023-06-10T14:08:14;6.70;;;4.72;;
78197;SDS011;67472;51.554;7.812;2023-06-10T14:11:03;6.57;;;5.18;;
78197;SDS011;67472;51.554;7.812;2023-06-10T14:13:49;5.15;;;4.57;;
78197;SDS011;67472;51.554;7.812;2023-06-10T14:16:36;5.28;;;4.72;;
78197;SDS011;67472;51.554;7.812;2023-06-10T14:19:22;6.43;;;4.43;;
78197;SDS011;67472;51.554;7.812;2023-06-10T14:22:08;4.90;;;4.35;;
78197;SDS011;67472;51.554;7.812;2023-06-10T14:24:55;7.30;;;4.68;;
78197;SDS011;67472;51.554;7.812;2023-06-10T14:27:42;11.30;;;4.97;;
78197;SDS011;67472;51.554;7.812;2023-06-10T14:30:28;5.55;;;4.72;;
78197;SDS011;67472;51.554;7.812;2023-06-10T14:33:15;6.57;;;4.60;;
78197;SDS011;67472;51.554;7.812;2023-06-10T14:36:01;13.32;;;4.88;;
78197;SDS011;67472;51.554;7.812;2023-06-10T14:38:47;7.65;;;4.53;;
78197;SDS011;67472;51.554;7.812;2023-06-10T14:41:34;9.48;;;4.50;;
78197;SDS011;67472;51.554;7.812;2023-06-10T14:44:22;5.32;;;4.78;;
78197;SDS011;67472;51.554;7.812;2023-06-10T14:47:11;9.13;;;4.72;;
78197;SDS011;67472;51.554;7.812;2023-06-10T14:49:58;5.30;;;4.75;;
78197;SDS011;67472;51.554;7.812;2023-06-10T14:52:44;6.00;;;4.70;;
78197;SDS011;67472;51.554;7.812;2023-06-10T14:55:30;8.88;;;5.15;;
78197;SDS011;67472;51.554;7.812;2023-06-10T14:58:16;8.63;;;5.00;;
78197;SDS011;67472;51.554;7.812;2023-06-10T15:01:04;5.32;;;4.63;;
78197;SDS011;67472;51.554;7.812;2023-06-10T15:03:50;10.02;;;4.85;;
78197;SDS011;67472;51.554;7.812;2023-06-10T15:06:37;5.85;;;4.93;;
78197;SDS011;67472;51.554;7.812;2023-06-10T15:09:23;7.43;;;4.50;;
78197;SDS011;67472;51.554;7.812;2023-06-10T15:12:09;9.93;;;4.68;;
78197;SDS011;67472;51.554;7.812;2023-06-10T15:14:56;5.72;;;4.97;;
78197;SDS011;67472;51.554;7.812;2023-06-10T15:17:43;6.35;;;5.30;;
78197;SDS011;67472;51.554;7.812;2023-06-10T15:20:30;6.18;;;4.93;;
78197;SDS011;67472;51.554;7.812;2023-06-10T15:23:16;5.93;;;5.00;;
78197;SDS011;67472;51.554;7.812;2023-06-10T15:26:02;6.28;;;4.78;;
78197;SDS011;67472;51.554;7.812;2023-06-10T15:28:49;7.57;;;4.78;;
78197;SDS011;67472;51.554;7.812;2023-06-10T15:31:35;7.63;;;4.60;;
78197;SDS011;67472;51.554;7.812;2023-06-10T15:34:23;9.77;;;4.93;;
78197;SDS011;67472;51.554;7.812;2023-06-10T15:37:09;7.65;;;4.95;;
78197;SDS011;67472;51.554;7.812;2023-06-10T15:39:55;5.32;;;4.82;;
78197;SDS011;67472;51.554;7.812;2023-06-10T15:42:42;11.35;;;5.05;;
78197;SDS011;67472;51.554;7.812;2023-06-10T15:45:28;8.60;;;5.03;;
78197;SDS011;67472;51.554;7.812;2023-06-10T15:48:15;4.75;;;4.28;;
78197;SDS011;67472;51.554;7.812;2023-06-10T15:51:02;5.25;;;4.55;;
78197;SDS011;67472;51.554;7.812;2023-06-10T15:53:49;8.45;;;4.85;;
78197;SDS011;67472;51.554;7.812;2023-06-10T15:56:35;6.05;;;4.68;;
78197;SDS011;67472;51.554;7.812;2023-06-10T15:59:24;6.05;;;5.15;;
78197;SDS011;67472;51.554;7.812;2023-06-10T16:02:10;8.38;;;5.35;;
78197;SDS011;67472;51.554;7.812;2023-06-10T16:04:56;9.73;;;4.93;;
78197;SDS011;67472;51.554;7.812;2023-06-10T16:07:44;5.45;;;4.95;;
78197;SDS011;67472;51.554;7.812;2023-06-10T16:10:30;8.85;;;4.50;;
78197;SDS011;67472;51.554;7.812;2023-06-10T16:13:16;9.48;;;5.47;;
78197;SDS011;67472;51.554;7.812;2023-06-10T16:16:02;6.00;;;4.75;;
78197;SDS011;67472;51.554;7.812;2023-06-10T16:18:50;7.53;;;5.35;;
78197;SDS011;67472;51.554;7.812;2023-06-10T16:21:37;8.10;;;4.93;;
78197;SDS011;67472;51.554;7.812;2023-06-10T16:24:26;6.45;;;4.72;;
78197;SDS011;67472;51.554;7.812;2023-06-10T16:27:13;8.10;;;4.88;;
78197;SDS011;67472;51.554;7.812;2023-06-10T16:29:59;6.20;;;4.80;;
78197;SDS011;67472;51.554;7.812;2023-06-10T16:32:46;6.78;;;5.35;;
78197;SDS011;67472;51.554;7.812;2023-06-10T16:35:32;5.68;;;5.13;;
78197;SDS011;67472;51.554;7.812;2023-06-10T16:38:18;6.45;;;4.95;;
78197;SDS011;67472;51.554;7.812;2023-06-10T16:41:06;7.68;;;5.47;;
78197;SDS011;67472;51.554;7.812;2023-06-10T16:43:52;9.30;;;5.53;;
78197;SDS011;67472;51.554;7.812;2023-06-10T16:46:38;7.13;;;5.50;;
78197;SDS011;67472;51.554;7.812;2023-06-10T16:49:25;10.15;;;5.40;;
78197;SDS011;67472;51.554;7.812;2023-06-10T16:52:11;7.95;;;5.40;;